Bewdley, United Kingdom
Current Conditions -  °F | °C
As of 1:20 AM on Tuesday 21 Oct 2014 (Local Time) from EGBB Reporting Station
Broken Clouds Broken Clouds  
Wind Chill: 54°   Ceiling: 1000
Heat Index: 54°   Visibility: 4mi
Dew Point: 50°   Wind: 14mph
Humidity: 88%   Direction: 190°S
Pressure: 29.68"   Gusts: NA
Location:  52.38°N, 2.32°W
Report Text: EGBB 210020Z 19012KT 160V230 7000 BKN010 12/10 Q1005
Loading
Personal Weather Stations






























Interactive Weather Map
Tropical Storm Tracking
New forecast layout! Learn more

10-Day Weather Forecast

Advertisements
Track Severe Weather on mobile